Time;durP1;ratioP1;P1;durP2;ratioP2;P2;SDS_P1;SDS_P2;PMS_P1;PMS_P2;Temp;Humidity;BMP_temperature;BMP_pressure;BME280_temperature;BME280_humidity;BME280_pressure;Samples;Min_cycle;Max_cycle;Signal;HPM_P1;HPM_P2
2021/01/25 00:00:21;;;;;;;7.03;2.42;;;11.40;78.10;;;;;;1036662;28;20018;-71
2021/01/25 00:00:52;;;;;;;7.13;2.25;;;11.40;78.50;;;;;;1036363;28;20026;-71
2021/01/25 00:01:24;;;;;;;5.13;2.30;;;11.40;78.50;;;;;;1037532;28;20025;-71
2021/01/25 00:01:56;;;;;;;5.85;2.20;;;11.40;78.60;;;;;;1040452;28;20067;-73
2021/01/25 00:02:27;;;;;;;5.80;2.38;;;11.40;78.70;;;;;;1040702;28;20067;-72
2021/01/25 00:02:58;;;;;;;4.95;2.35;;;11.50;79.00;;;;;;1040853;28;20024;-72
2021/01/25 00:03:30;;;;;;;9.65;2.60;;;11.50;79.20;;;;;;1040419;28;20351;-72
2021/01/25 00:04:02;;;;;;;9.45;2.33;;;11.50;79.20;;;;;;1040369;28;20458;-72
2021/01/25 00:04:33;;;;;;;7.80;2.40;;;11.40;78.80;;;;;;1037064;28;20033;-73
2021/01/25 00:05:06;;;;;;;5.65;2.20;;;11.40;78.90;;;;;;1035863;28;20029;-71
2021/01/25 00:05:38;;;;;;;7.57;2.55;;;11.40;79.00;;;;;;1029595;28;20066;-72
2021/01/25 00:06:09;;;;;;;6.60;2.58;;;11.50;78.90;;;;;;1030384;28;20026;-72
2021/01/25 00:06:41;;;;;;;6.47;2.40;;;11.50;79.00;;;;;;1037159;28;20026;-72
2021/01/25 00:07:12;;;;;;;7.68;2.47;;;11.40;79.10;;;;;;1038021;28;20085;-72
2021/01/25 00:07:44;;;;;;;5.47;2.47;;;11.40;79.70;;;;;;1038961;28;20026;-72
2021/01/25 00:08:15;;;;;;;7.70;2.33;;;11.40;79.30;;;;;;1038262;28;20113;-72
2021/01/25 00:08:46;;;;;;;5.13;2.33;;;11.30;79.30;;;;;;1040082;28;20021;-72
2021/01/25 00:09:18;;;;;;;6.97;2.20;;;11.40;79.30;;;;;;1041080;28;20017;-72
2021/01/25 00:09:49;;;;;;;7.00;2.60;;;11.30;79.20;;;;;;1037744;28;20017;-73
2021/01/25 00:10:20;;;;;;;7.13;2.28;;;11.30;79.10;;;;;;1035459;28;20014;-72
2021/01/25 00:10:53;;;;;;;6.72;2.50;;;11.30;78.90;;;;;;1036755;28;20093;-72
2021/01/25 00:11:24;;;;;;;6.80;2.10;;;11.20;78.90;;;;;;1034466;28;20482;-71
2021/01/25 00:11:56;;;;;;;5.90;2.10;;;11.20;79.00;;;;;;1036592;28;20032;-71
2021/01/25 00:12:28;;;;;;;7.78;2.33;;;11.20;79.30;;;;;;1038017;28;20018;-71
2021/01/25 00:12:59;;;;;;;5.93;2.40;;;11.20;79.30;;;;;;1039714;28;20013;-72
2021/01/25 00:13:30;;;;;;;5.28;2.30;;;11.20;79.50;;;;;;1037630;28;20124;-73
2021/01/25 00:14:02;;;;;;;5.68;2.20;;;11.20;79.50;;;;;;1040258;28;20014;-72
2021/01/25 00:14:33;;;;;;;5.50;2.30;;;11.20;79.60;;;;;;1038872;28;20452;-71
2021/01/25 00:15:06;;;;;;;6.40;2.38;;;11.20;79.80;;;;;;1040719;28;20636;-72
2021/01/25 00:15:37;;;;;;;5.65;2.20;;;11.10;79.60;;;;;;1041147;28;20018;-72
2021/01/25 00:16:09;;;;;;;6.70;2.42;;;11.10;79.90;;;;;;1041224;28;20436;-72
2021/01/25 00:16:41;;;;;;;6.70;2.50;;;11.10;80.10;;;;;;1040889;28;20013;-72
2021/01/25 00:17:12;;;;;;;4.47;2.40;;;11.20;80.40;;;;;;1040502;28;20020;-72
2021/01/25 00:17:44;;;;;;;5.82;2.38;;;11.20;80.60;;;;;;1039925;28;20461;-72
2021/01/25 00:18:16;;;;;;;5.57;2.13;;;11.20;80.60;;;;;;1040850;28;20077;-72
2021/01/25 00:18:47;;;;;;;5.97;2.20;;;11.20;80.70;;;;;;1038786;28;20029;-71
2021/01/25 00:19:19;;;;;;;5.93;2.03;;;11.20;80.60;;;;;;1044476;28;20146;-71
2021/01/25 00:19:50;;;;;;;5.72;2.67;;;11.30;80.40;;;;;;1042453;28;20413;-71
2021/01/25 00:20:21;;;;;;;6.07;2.13;;;11.30;80.20;;;;;;1044115;28;20028;-72
2021/01/25 00:20:53;;;;;;;5.07;2.28;;;11.30;80.30;;;;;;1042881;28;20021;-71
2021/01/25 00:21:24;;;;;;;5.30;2.28;;;11.30;80.30;;;;;;1041746;28;20406;-71
2021/01/25 00:21:56;;;;;;;8.13;2.10;;;11.30;80.50;;;;;;1042515;28;20017;-71
2021/01/25 00:22:28;;;;;;;6.15;2.28;;;11.30;80.40;;;;;;1038913;28;20079;-72
2021/01/25 00:22:59;;;;;;;6.20;2.45;;;11.30;80.30;;;;;;1037253;28;20018;-71
2021/01/25 00:23:30;;;;;;;11.35;2.58;;;11.30;80.20;;;;;;1031549;28;20440;-71
2021/01/25 00:24:02;;;;;;;6.25;2.13;;;11.20;80.30;;;;;;1032157;28;20354;-72
2021/01/25 00:24:33;;;;;;;9.15;2.33;;;11.20;80.70;;;;;;1034487;28;20022;-71
2021/01/25 00:25:05;;;;;;;8.68;2.58;;;11.30;81.00;;;;;;1038523;28;20013;-72
2021/01/25 00:25:37;;;;;;;6.35;2.50;;;11.30;81.10;;;;;;1040030;28;20152;-71
2021/01/25 00:26:08;;;;;;;5.78;2.40;;;11.30;81.30;;;;;;1039188;28;20029;-71
2021/01/25 00:26:39;;;;;;;9.77;2.50;;;11.30;81.50;;;;;;1038418;28;20014;-71
2021/01/25 00:27:11;;;;;;;7.97;2.30;;;11.30;81.50;;;;;;1038507;28;20363;-72
2021/01/25 00:27:42;;;;;;;6.75;2.40;;;11.30;81.50;;;;;;1036082;28;20167;-70
2021/01/25 00:28:14;;;;;;;9.35;2.50;;;11.30;81.20;;;;;;1036162;28;20010;-71
2021/01/25 00:28:45;;;;;;;5.40;2.40;;;11.30;81.50;;;;;;1036657;28;20022;-71
2021/01/25 00:29:16;;;;;;;7.93;2.50;;;11.30;81.50;;;;;;1037921;28;20022;-71
2021/01/25 00:29:48;;;;;;;8.45;2.70;;;11.30;81.30;;;;;;1042470;28;21394;-71
2021/01/25 00:30:20;;;;;;;5.43;2.10;;;11.30;81.40;;;;;;1040640;28;20021;-71
2021/01/25 00:30:51;;;;;;;6.68;2.35;;;11.40;81.40;;;;;;1038153;28;20032;-71
2021/01/25 00:31:22;;;;;;;6.82;2.28;;;11.40;81.00;;;;;;1033440;28;20019;-73
2021/01/25 00:31:54;;;;;;;10.52;2.60;;;11.40;81.20;;;;;;1034870;28;20038;-72
2021/01/25 00:32:25;;;;;;;5.60;2.25;;;11.40;81.60;;;;;;1031484;28;20451;-71
2021/01/25 00:32:57;;;;;;;9.23;2.50;;;11.40;81.50;;;;;;1032966;28;20110;-72
2021/01/25 00:33:28;;;;;;;6.72;2.67;;;11.40;81.40;;;;;;1036633;28;20049;-72
2021/01/25 00:34:00;;;;;;;7.00;2.22;;;11.40;81.30;;;;;;1037580;28;20014;-72
2021/01/25 00:34:31;;;;;;;8.27;2.17;;;11.40;81.20;;;;;;1044654;28;20443;-72
2021/01/25 00:35:03;;;;;;;8.52;2.38;;;11.40;80.80;;;;;;1044366;28;20422;-71
2021/01/25 00:35:34;;;;;;;6.78;2.40;;;11.50;80.30;;;;;;1039434;28;20104;-71
2021/01/25 00:36:06;;;;;;;6.43;2.30;;;11.50;80.10;;;;;;1039216;28;20001;-71
2021/01/25 00:36:37;;;;;;;6.68;2.28;;;11.50;80.40;;;;;;1039239;28;20018;-71
2021/01/25 00:37:08;;;;;;;7.15;2.10;;;11.40;79.90;;;;;;1034902;28;20022;-72
2021/01/25 00:37:40;;;;;;;3.95;1.85;;;11.40;80.00;;;;;;1037566;28;20045;-71
2021/01/25 00:38:12;;;;;;;6.65;2.20;;;11.40;79.80;;;;;;1039363;28;20056;-71
2021/01/25 00:38:43;;;;;;;5.43;2.28;;;11.40;79.40;;;;;;1040730;28;20005;-72
2021/01/25 00:39:15;;;;;;;4.78;2.00;;;11.40;79.30;;;;;;1039639;28;20006;-71
2021/01/25 00:39:46;;;;;;;6.20;2.10;;;11.50;79.60;;;;;;1040721;28;20045;-72
2021/01/25 00:40:18;;;;;;;7.45;2.10;;;11.40;79.60;;;;;;1040717;28;20013;-71
2021/01/25 00:40:49;;;;;;;7.22;2.30;;;11.40;79.60;;;;;;1040050;28;20013;-72
2021/01/25 00:41:21;;;;;;;5.45;2.45;;;11.40;79.50;;;;;;1039811;28;20065;-71
2021/01/25 00:41:52;;;;;;;5.63;2.30;;;11.40;79.60;;;;;;1038881;28;20021;-71
2021/01/25 00:42:24;;;;;;;6.13;2.10;;;11.40;79.80;;;;;;1034534;28;20010;-72
2021/01/25 00:42:55;;;;;;;5.95;2.20;;;11.40;80.10;;;;;;1032940;28;20015;-71
2021/01/25 00:43:26;;;;;;;7.78;2.50;;;11.40;80.00;;;;;;1036426;28;20021;-71
2021/01/25 00:43:58;;;;;;;5.47;2.30;;;11.40;80.10;;;;;;1036515;28;20097;-71
2021/01/25 00:44:29;;;;;;;5.75;2.40;;;11.40;80.10;;;;;;1036504;28;20436;-71
2021/01/25 00:45:01;;;;;;;4.93;2.13;;;11.50;80.00;;;;;;1039198;28;20359;-71
2021/01/25 00:45:32;;;;;;;5.15;2.13;;;11.50;80.10;;;;;;1043484;28;20501;-72
2021/01/25 00:46:04;;;;;;;5.15;1.85;;;11.50;79.80;;;;;;1040630;28;20017;-71
2021/01/25 00:46:35;;;;;;;3.65;1.88;;;11.50;79.90;;;;;;1036534;28;20018;-71
2021/01/25 00:47:07;;;;;;;4.07;1.92;;;11.50;79.90;;;;;;1035877;28;20018;-71
2021/01/25 00:47:38;;;;;;;4.38;1.77;;;11.60;79.70;;;;;;1033248;28;20092;-71
2021/01/25 00:48:09;;;;;;;5.13;2.35;;;11.60;79.30;;;;;;1036460;28;20006;-73
2021/01/25 00:48:41;;;;;;;4.28;1.85;;;11.60;79.20;;;;;;1040662;28;20018;-72
2021/01/25 00:49:12;;;;;;;4.63;2.25;;;11.60;79.10;;;;;;1040356;28;20097;-72
2021/01/25 00:49:44;;;;;;;6.53;2.10;;;11.60;79.10;;;;;;1035352;28;20439;-71
2021/01/25 00:50:15;;;;;;;6.90;1.92;;;11.60;79.10;;;;;;1031969;28;20449;-71
2021/01/25 00:50:46;;;;;;;4.80;2.05;;;11.70;79.10;;;;;;1031708;28;20019;-71
2021/01/25 00:51:18;;;;;;;6.28;2.30;;;11.70;79.00;;;;;;1036906;28;20089;-71
2021/01/25 00:51:49;;;;;;;4.82;1.83;;;11.70;78.40;;;;;;1038218;28;20373;-71
2021/01/25 00:52:21;;;;;;;7.28;2.10;;;11.70;78.20;;;;;;1040580;28;20013;-71
2021/01/25 00:52:52;;;;;;;5.93;2.00;;;11.70;78.20;;;;;;1040090;28;20014;-71
2021/01/25 00:53:23;;;;;;;7.75;2.17;;;11.70;78.20;;;;;;1040330;28;20451;-72
2021/01/25 00:53:55;;;;;;;5.03;2.15;;;11.70;78.30;;;;;;1039922;28;20509;-71
2021/01/25 00:54:26;;;;;;;5.15;1.83;;;11.70;78.00;;;;;;1038561;28;20014;-71
2021/01/25 00:54:58;;;;;;;4.65;2.08;;;11.70;77.90;;;;;;1039373;28;20013;-71
2021/01/25 00:55:29;;;;;;;5.70;1.90;;;11.70;78.00;;;;;;1037631;28;20002;-71
2021/01/25 00:56:00;;;;;;;6.45;2.03;;;11.60;78.00;;;;;;1038068;28;20444;-71
2021/01/25 00:56:32;;;;;;;5.75;2.00;;;11.70;78.30;;;;;;1040409;28;20029;-73
2021/01/25 00:57:04;;;;;;;5.65;2.45;;;11.70;78.10;;;;;;1040419;28;20017;-72
2021/01/25 00:57:35;;;;;;;5.20;2.35;;;11.70;78.10;;;;;;1041094;28;20020;-71
2021/01/25 00:58:07;;;;;;;6.13;2.25;;;11.70;78.30;;;;;;1044262;28;20015;-71
2021/01/25 00:58:39;;;;;;;5.78;2.30;;;11.70;78.40;;;;;;1036295;28;20018;-71
2021/01/25 00:59:10;;;;;;;5.82;1.95;;;11.70;78.50;;;;;;1040582;28;20470;-71
2021/01/25 00:59:44;;;;;;;6.00;2.28;;;11.80;78.50;;;;;;1040825;28;20010;-71
2021/01/25 01:00:16;;;;;;;4.13;2.05;;;11.80;78.40;;;;;;1040568;28;20101;-71
2021/01/25 01:00:48;;;;;;;5.20;2.05;;;11.80;77.90;;;;;;1044086;28;20348;-71
2021/01/25 01:01:19;;;;;;;5.55;2.13;;;11.80;77.80;;;;;;1044894;28;20005;-71
2021/01/25 01:01:51;;;;;;;3.88;2.20;;;11.70;77.60;;;;;;1041559;28;20013;-72
2021/01/25 01:02:22;;;;;;;6.18;2.40;;;11.70;77.30;;;;;;1039645;28;20093;-72
2021/01/25 01:02:53;;;;;;;5.03;1.90;;;11.70;77.30;;;;;;1039578;28;20337;-71
2021/01/25 01:03:25;;;;;;;6.45;2.30;;;11.70;77.50;;;;;;1038255;28;20014;-72
2021/01/25 01:03:56;;;;;;;5.97;2.40;;;11.70;77.80;;;;;;1036544;28;20021;-72
2021/01/25 01:04:27;;;;;;;7.25;2.28;;;11.70;77.90;;;;;;1032653;28;20010;-71
2021/01/25 01:04:59;;;;;;;6.85;2.50;;;11.70;78.00;;;;;;1034923;28;20021;-71
2021/01/25 01:05:30;;;;;;;5.10;2.20;;;11.70;78.00;;;;;;1035670;28;20510;-72
2021/01/25 01:06:02;;;;;;;6.32;2.25;;;11.70;78.00;;;;;;1036210;28;20013;-72
2021/01/25 01:06:34;;;;;;;6.70;2.35;;;11.80;78.10;;;;;;1037508;28;20010;-72
2021/01/25 01:07:05;;;;;;;5.45;2.58;;;11.80;78.20;;;;;;1038656;28;20014;-72
2021/01/25 01:07:37;;;;;;;6.38;2.35;;;11.80;78.30;;;;;;1039381;28;20024;-72
2021/01/25 01:08:08;;;;;;;5.00;2.30;;;11.80;78.20;;;;;;1038899;28;20013;-72
2021/01/25 01:08:39;;;;;;;5.38;2.53;;;11.80;77.90;;;;;;1040045;28;20010;-72
2021/01/25 01:09:11;;;;;;;4.82;2.35;;;11.80;77.70;;;;;;1040617;28;20021;-72
2021/01/25 01:09:42;;;;;;;4.80;2.40;;;11.80;77.80;;;;;;1040843;28;20002;-72
2021/01/25 01:10:14;;;;;;;5.75;2.40;;;11.80;77.60;;;;;;1040155;28;20009;-72
2021/01/25 01:10:46;;;;;;;7.97;2.92;;;11.80;77.40;;;;;;1040274;28;20013;-73
2021/01/25 01:11:18;;;;;;;6.07;2.38;;;11.80;77.20;;;;;;1040234;28;20499;-72
2021/01/25 01:11:49;;;;;;;6.22;2.35;;;11.80;77.10;;;;;;1039791;28;20072;-72
2021/01/25 01:12:20;;;;;;;5.90;2.58;;;11.80;77.00;;;;;;1034839;28;20037;-71
2021/01/25 01:12:52;;;;;;;7.00;2.47;;;11.80;77.20;;;;;;1033389;28;20026;-72
2021/01/25 01:13:23;;;;;;;9.15;2.70;;;11.80;77.20;;;;;;1029254;28;20031;-72
2021/01/25 01:13:54;;;;;;;8.45;2.65;;;11.80;77.00;;;;;;1035499;28;20085;-72
2021/01/25 01:14:26;;;;;;;6.40;2.42;;;11.80;76.90;;;;;;1039626;28;20041;-72
2021/01/25 01:14:58;;;;;;;5.97;2.30;;;11.80;76.30;;;;;;1040569;28;20013;-72
2021/01/25 01:15:29;;;;;;;7.55;2.10;;;11.70;75.90;;;;;;1040317;28;20017;-72
2021/01/25 01:16:00;;;;;;;5.22;2.10;;;11.70;75.50;;;;;;1035885;28;20439;-72
2021/01/25 01:16:32;;;;;;;4.15;1.90;;;11.70;75.50;;;;;;1036472;28;20025;-72
2021/01/25 01:17:03;;;;;;;4.68;2.13;;;11.70;75.50;;;;;;1037074;28;20010;-72
2021/01/25 01:17:35;;;;;;;3.40;1.95;;;11.70;75.10;;;;;;1040708;28;20021;-72
2021/01/25 01:18:06;;;;;;;5.72;2.28;;;11.60;75.50;;;;;;1039325;28;20097;-72
2021/01/25 01:18:37;;;;;;;7.20;2.13;;;11.60;75.60;;;;;;1040181;28;20025;-72
2021/01/25 01:19:09;;;;;;;4.35;2.17;;;11.60;76.00;;;;;;1040902;28;20093;-72
2021/01/25 01:19:40;;;;;;;5.97;2.30;;;11.60;76.40;;;;;;1038467;28;20037;-72
2021/01/25 01:20:12;;;;;;;4.68;2.20;;;11.60;76.50;;;;;;1039508;28;20059;-72
2021/01/25 01:20:43;;;;;;;6.00;2.30;;;11.60;76.60;;;;;;1042310;28;20410;-72
2021/01/25 01:21:15;;;;;;;5.75;2.60;;;11.60;76.60;;;;;;1036645;28;20011;-72
2021/01/25 01:21:46;;;;;;;5.63;2.38;;;11.60;76.50;;;;;;1040712;28;20347;-72
2021/01/25 01:22:18;;;;;;;5.03;2.40;;;11.60;76.70;;;;;;1036228;28;20367;-72
2021/01/25 01:22:49;;;;;;;5.22;2.72;;;11.50;76.80;;;;;;1035766;28;20014;-71
2021/01/25 01:23:20;;;;;;;6.20;2.60;;;11.50;76.90;;;;;;1036250;28;20029;-71
2021/01/25 01:23:52;;;;;;;7.10;2.50;;;11.50;76.90;;;;;;1036782;28;20014;-72
2021/01/25 01:24:23;;;;;;;4.32;2.20;;;11.50;77.00;;;;;;1038855;28;20024;-72
2021/01/25 01:24:55;;;;;;;6.53;2.30;;;11.50;77.10;;;;;;1038858;28;20517;-71
2021/01/25 01:25:26;;;;;;;8.40;2.30;;;11.50;76.90;;;;;;1042858;28;20052;-72
2021/01/25 01:25:57;;;;;;;5.55;2.20;;;11.50;77.00;;;;;;1040709;28;20450;-72
2021/01/25 01:26:29;;;;;;;4.35;2.20;;;11.50;77.20;;;;;;1038009;28;20088;-72
2021/01/25 01:27:00;;;;;;;7.22;2.50;;;11.50;77.30;;;;;;1036753;28;20165;-72
2021/01/25 01:27:32;;;;;;;4.90;2.28;;;11.50;77.50;;;;;;1040366;28;20010;-71
2021/01/25 01:28:03;;;;;;;5.63;2.58;;;11.50;77.60;;;;;;1042297;28;20021;-72
2021/01/25 01:28:35;;;;;;;6.68;2.70;;;11.50;77.60;;;;;;1039663;28;20018;-71
2021/01/25 01:29:06;;;;;;;5.88;2.50;;;11.40;77.70;;;;;;1039531;28;20073;-72
2021/01/25 01:29:38;;;;;;;6.40;2.45;;;11.40;77.90;;;;;;1039523;28;20474;-71
2021/01/25 01:30:09;;;;;;;4.95;2.50;;;11.40;77.90;;;;;;1035228;28;20180;-71
2021/01/25 01:30:41;;;;;;;6.43;2.50;;;11.40;78.10;;;;;;1040409;28;20451;-71
2021/01/25 01:31:12;;;;;;;6.70;2.22;;;11.40;78.30;;;;;;1040060;28;20005;-71
2021/01/25 01:31:45;;;;;;;5.85;2.80;;;11.40;78.40;;;;;;1039946;28;20011;-71
2021/01/25 01:32:16;;;;;;;5.22;2.30;;;11.40;78.40;;;;;;1038403;28;20083;-71
2021/01/25 01:32:48;;;;;;;3.53;2.30;;;11.40;78.20;;;;;;1039596;28;20010;-72
2021/01/25 01:33:19;;;;;;;6.18;2.35;;;11.40;78.20;;;;;;1033017;28;20051;-72
2021/01/25 01:33:50;;;;;;;3.83;2.08;;;11.30;78.20;;;;;;1035821;28;20017;-72
2021/01/25 01:34:22;;;;;;;3.78;2.03;;;11.30;78.50;;;;;;1038416;28;20025;-72
2021/01/25 01:34:53;;;;;;;3.85;2.05;;;11.30;78.50;;;;;;1032626;28;20046;-72
2021/01/25 01:35:25;;;;;;;4.60;2.70;;;11.20;78.60;;;;;;1035431;28;20448;-72
2021/01/25 01:35:57;;;;;;;3.28;2.10;;;11.10;78.90;;;;;;1036408;28;20425;-72
2021/01/25 01:36:28;;;;;;;6.70;2.45;;;11.10;79.10;;;;;;1032681;28;20026;-72
2021/01/25 01:36:59;;;;;;;5.70;2.22;;;11.10;79.30;;;;;;1035866;28;20413;-73
2021/01/25 01:37:31;;;;;;;4.18;2.42;;;11.10;79.40;;;;;;1040038;28;20108;-72
2021/01/25 01:38:02;;;;;;;4.45;2.35;;;11.00;79.40;;;;;;1040926;28;20430;-72
2021/01/25 01:38:34;;;;;;;5.00;2.50;;;11.00;79.50;;;;;;1040324;28;20449;-71
2021/01/25 01:39:05;;;;;;;3.05;2.15;;;11.00;79.60;;;;;;1040407;28;20021;-72
2021/01/25 01:39:37;;;;;;;7.53;2.50;;;11.00;79.90;;;;;;1035544;28;20463;-71
2021/01/25 01:40:11;;;;;;;5.90;2.60;;;11.00;80.30;;;;;;1032380;28;20060;-72
2021/01/25 01:40:42;;;;;;;6.55;2.78;;;11.00;80.30;;;;;;1032348;28;20017;-72
2021/01/25 01:41:13;;;;;;;4.25;2.60;;;11.00;80.20;;;;;;1036379;28;20014;-71
2021/01/25 01:41:45;;;;;;;7.30;2.60;;;11.00;80.10;;;;;;1039903;28;20032;-72
2021/01/25 01:42:18;;;;;;;4.63;2.30;;;11.00;80.20;;;;;;1043179;28;20032;-72
2021/01/25 01:42:49;;;;;;;4.35;2.38;;;10.90;80.20;;;;;;1040182;28;20076;-72
2021/01/25 01:43:21;;;;;;;4.65;2.40;;;10.90;80.30;;;;;;1040615;28;20020;-72
2021/01/25 01:43:52;;;;;;;5.35;2.28;;;11.00;80.10;;;;;;1040544;28;20494;-72
2021/01/25 01:44:23;;;;;;;5.38;2.33;;;11.20;79.80;;;;;;1036654;28;20018;-71
2021/01/25 01:44:55;;;;;;;6.40;2.35;;;11.30;77.00;;;;;;1039626;28;20025;-71
2021/01/25 01:45:26;;;;;;;5.10;2.40;;;11.30;77.00;;;;;;1040619;28;20351;-71
2021/01/25 01:45:58;;;;;;;4.32;2.15;;;11.20;77.70;;;;;;1040038;28;20025;-71
2021/01/25 01:46:29;;;;;;;4.45;2.30;;;11.20;78.40;;;;;;1040175;28;20039;-71
2021/01/25 01:47:01;;;;;;;3.45;1.90;;;11.10;78.80;;;;;;1040012;28;20109;-71
2021/01/25 01:47:33;;;;;;;3.80;2.22;;;11.10;79.30;;;;;;1037723;28;20033;-71
2021/01/25 01:48:05;;;;;;;3.38;2.13;;;11.00;79.40;;;;;;1040184;28;20100;-71
2021/01/25 01:48:37;;;;;;;6.57;2.25;;;11.00;79.40;;;;;;1039295;28;20047;-71
2021/01/25 01:49:10;;;;;;;3.60;2.00;;;11.00;79.40;;;;;;1032402;28;20033;-71
2021/01/25 01:49:42;;;;;;;4.22;2.10;;;11.00;79.70;;;;;;1034647;28;20022;-71
2021/01/25 01:50:14;;;;;;;6.30;2.58;;;11.00;79.90;;;;;;1040509;28;20014;-71
2021/01/25 01:50:46;;;;;;;5.05;2.40;;;10.90;80.20;;;;;;1038890;28;20026;-71
2021/01/25 01:51:18;;;;;;;4.07;2.17;;;10.90;80.50;;;;;;1036384;28;20030;-71
2021/01/25 01:51:49;;;;;;;4.55;2.30;;;10.90;80.70;;;;;;1038076;28;20045;-71
2021/01/25 01:52:21;;;;;;;4.53;1.90;;;10.90;80.80;;;;;;1040234;28;20009;-71
2021/01/25 01:52:53;;;;;;;3.83;2.20;;;10.90;81.00;;;;;;1036229;28;20014;-71
2021/01/25 01:53:25;;;;;;;5.38;2.30;;;10.90;81.10;;;;;;1038778;28;20021;-71
2021/01/25 01:53:58;;;;;;;7.63;2.33;;;10.90;81.10;;;;;;1038132;28;20351;-71
2021/01/25 01:54:29;;;;;;;5.00;2.10;;;10.80;81.20;;;;;;1039150;28;20021;-71
2021/01/25 01:55:01;;;;;;;3.65;2.10;;;10.80;81.20;;;;;;1042242;28;20523;-71
2021/01/25 01:55:33;;;;;;;4.45;1.98;;;10.90;81.40;;;;;;1039101;28;20059;-71
2021/01/25 01:56:05;;;;;;;4.10;2.15;;;10.80;81.20;;;;;;1034953;28;20494;-71
2021/01/25 01:56:37;;;;;;;4.80;2.20;;;10.80;81.10;;;;;;1035991;28;20053;-71
2021/01/25 01:57:08;;;;;;;5.13;2.33;;;10.90;81.20;;;;;;1032382;28;20101;-71
2021/01/25 01:57:41;;;;;;;5.47;2.38;;;10.80;81.40;;;;;;1035826;28;20033;-71
2021/01/25 01:58:15;;;;;;;4.22;2.20;;;10.80;81.40;;;;;;1035338;28;20463;-71
2021/01/25 01:58:46;;;;;;;6.57;2.30;;;10.90;81.40;;;;;;1035524;28;20029;-71
2021/01/25 01:59:18;;;;;;;6.38;2.22;;;10.90;81.40;;;;;;1040543;28;20076;-71
2021/01/25 01:59:50;;;;;;;7.50;2.72;;;10.90;81.40;;;;;;1037862;28;20122;-71
2021/01/25 02:00:22;;;;;;;5.13;2.40;;;10.90;81.10;;;;;;1039551;28;20434;-71
2021/01/25 02:00:53;;;;;;;10.75;3.05;;;10.90;81.00;;;;;;1044235;28;20009;-71
2021/01/25 02:01:24;;;;;;;6.28;2.67;;;11.00;80.90;;;;;;1040254;28;20459;-71
2021/01/25 02:01:56;;;;;;;8.75;2.85;;;11.00;80.40;;;;;;1033914;28;20391;-71
2021/01/25 02:02:27;;;;;;;9.20;2.70;;;11.00;80.60;;;;;;1036236;28;20089;-71
2021/01/25 02:02:58;;;;;;;10.00;2.90;;;11.00;80.70;;;;;;1036254;28;20460;-72
2021/01/25 02:03:30;;;;;;;7.50;3.00;;;11.00;80.80;;;;;;1036854;28;20466;-71
2021/01/25 02:04:01;;;;;;;8.18;2.95;;;11.00;80.90;;;;;;1036241;28;20080;-71
2021/01/25 02:04:34;;;;;;;8.15;2.90;;;11.00;81.00;;;;;;1036393;28;20021;-71
2021/01/25 02:05:06;;;;;;;8.80;2.90;;;11.00;81.10;;;;;;1034897;28;20032;-71
2021/01/25 02:05:41;;;;;;;11.05;3.10;;;11.00;81.20;;;;;;1036790;28;20010;-71
2021/01/25 02:06:13;;;;;;;11.20;2.90;;;11.00;81.10;;;;;;1038530;28;20013;-71
2021/01/25 02:06:45;;;;;;;11.88;3.13;;;11.00;81.00;;;;;;1036253;28;20022;-71
2021/01/25 02:07:17;;;;;;;8.77;2.75;;;11.00;81.10;;;;;;1036250;28;20351;-71
2021/01/25 02:07:51;;;;;;;11.98;3.33;;;11.00;81.10;;;;;;1036353;28;20049;-71
2021/01/25 02:08:23;;;;;;;8.13;2.60;;;11.00;81.00;;;;;;1040138;28;20013;-71
2021/01/25 02:08:58;;;;;;;9.63;2.80;;;11.00;80.90;;;;;;1037272;28;20014;-71
2021/01/25 02:09:32;;;;;;;9.38;2.80;;;11.00;81.00;;;;;;1037469;28;20013;-71
2021/01/25 02:10:05;;;;;;;12.18;3.10;;;11.00;81.10;;;;;;1040535;28;20070;-71
2021/01/25 02:10:37;;;;;;;16.00;3.08;;;11.00;81.40;;;;;;1039711;28;20032;-71
2021/01/25 02:11:11;;;;;;;12.02;3.00;;;11.00;81.20;;;;;;1040446;28;20097;-71
2021/01/25 02:11:44;;;;;;;13.80;3.17;;;11.00;81.00;;;;;;1040351;28;20521;-71
2021/01/25 02:12:18;;;;;;;12.60;3.17;;;11.00;81.00;;;;;;1040019;28;20033;-71
2021/01/25 02:12:55;;;;;;;10.10;3.10;;;11.00;81.00;;;;;;1039869;28;20017;-71
2021/01/25 02:13:27;;;;;;;10.32;2.88;;;11.10;81.10;;;;;;1040798;28;20013;-71
2021/01/25 02:13:59;;;;;;;10.63;3.13;;;11.10;81.20;;;;;;1044325;28;20024;-71
2021/01/25 02:14:32;;;;;;;13.65;3.22;;;11.10;81.20;;;;;;1042885;28;20017;-71
2021/01/25 02:15:04;;;;;;;12.32;3.20;;;11.00;81.10;;;;;;1040409;28;20502;-72
2021/01/25 02:15:36;;;;;;;10.13;3.42;;;11.10;81.20;;;;;;1042427;28;20017;-71
2021/01/25 02:16:07;;;;;;;15.55;3.35;;;11.10;81.20;;;;;;1041081;28;20426;-73
2021/01/25 02:16:42;;;;;;;13.00;3.38;;;11.10;81.30;;;;;;1036346;28;20025;-72
2021/01/25 02:17:14;;;;;;;10.95;3.58;;;11.10;81.20;;;;;;1039507;28;20014;-71
2021/01/25 02:17:53;;;;;;;11.07;3.63;;;11.10;81.20;;;;;;1039316;28;20123;-72
2021/01/25 02:18:24;;;;;;;9.80;3.35;;;11.10;81.20;;;;;;1040395;28;20029;-71
2021/01/25 02:18:57;;;;;;;13.18;3.45;;;11.10;81.30;;;;;;1040684;28;20462;-72
2021/01/25 02:19:55;;;;;;;12.32;3.20;;;11.10;81.40;;;;;;1040342;28;20032;-71
2021/01/25 02:20:37;;;;;;;15.48;3.40;;;11.10;81.50;;;;;;1035769;28;20531;-71
2021/01/25 02:21:14;;;;;;;11.10;3.55;;;11.10;80.70;;;;;;1033539;28;20029;-71
2021/01/25 02:22:11;;;;;;;13.73;3.67;;;11.10;80.50;;;;;;1036277;28;20026;-71
2021/01/25 02:23:13;;;;;;;12.30;3.33;;;11.10;80.70;;;;;;1040360;28;20044;-71
2021/01/25 02:24:10;;;;;;;13.93;3.85;;;11.00;80.70;;;;;;1040464;28;20026;-72
2021/01/25 02:24:51;;;;;;;16.10;3.72;;;11.10;80.80;;;;;;1036822;28;20101;-71
2021/01/25 02:25:47;;;;;;;16.20;3.72;;;11.00;80.60;;;;;;1036505;28;20033;-71
2021/01/25 02:26:28;;;;;;;17.58;3.45;;;11.00;80.80;;;;;;1039237;28;20033;-71
2021/01/25 02:27:15;;;;;;;18.92;3.85;;;11.00;81.00;;;;;;1036163;28;20029;-71
2021/01/25 02:27:47;;;;;;;13.30;3.53;;;11.00;81.10;;;;;;1036145;28;20489;-71
2021/01/25 02:28:19;;;;;;;17.65;4.25;;;11.00;81.10;;;;;;1038678;28;20105;-71
2021/01/25 02:28:51;;;;;;;13.95;3.85;;;11.00;80.50;;;;;;1038619;28;20064;-72
2021/01/25 02:29:22;;;;;;;16.52;4.10;;;11.00;80.30;;;;;;1042278;28;20096;-71
2021/01/25 02:29:54;;;;;;;20.67;4.50;;;11.00;80.50;;;;;;1035618;28;20146;-71
2021/01/25 02:30:26;;;;;;;21.90;4.55;;;11.00;80.60;;;;;;1032201;28;20456;-71
2021/01/25 02:31:03;;;;;;;15.80;4.60;;;11.10;80.40;;;;;;1034142;28;20539;-71
2021/01/25 02:31:36;;;;;;;27.85;4.15;;;11.10;80.60;;;;;;1033529;28;20026;-71
2021/01/25 02:32:07;;;;;;;20.00;4.72;;;11.10;79.40;;;;;;1038960;28;20038;-71
2021/01/25 02:32:40;;;;;;;20.58;4.82;;;11.10;79.20;;;;;;1040868;28;20087;-71
2021/01/25 02:33:13;;;;;;;22.63;4.60;;;11.00;79.00;;;;;;1039614;28;20053;-71
2021/01/25 02:33:53;;;;;;;22.50;4.72;;;11.00;79.20;;;;;;1039368;28;20017;-71
2021/01/25 02:34:25;;;;;;;21.63;4.75;;;11.10;79.30;;;;;;1037317;28;20045;-71
2021/01/25 02:34:58;;;;;;;22.08;4.55;;;11.10;79.50;;;;;;1038495;28;20030;-71
2021/01/25 02:35:31;;;;;;;23.73;5.15;;;11.10;79.60;;;;;;1039641;28;20021;-71
2021/01/25 02:36:03;;;;;;;23.88;5.03;;;11.10;79.90;;;;;;1039269;28;20426;-71
2021/01/25 02:36:34;;;;;;;18.20;4.65;;;11.10;79.70;;;;;;1039805;28;20044;-71
2021/01/25 02:37:07;;;;;;;20.35;4.75;;;11.10;78.60;;;;;;1034551;28;20472;-71
2021/01/25 02:37:40;;;;;;;21.50;4.82;;;11.10;78.60;;;;;;1033115;28;20026;-71
2021/01/25 02:38:14;;;;;;;25.48;5.07;;;11.10;78.80;;;;;;1032947;28;20022;-71
2021/01/25 02:38:48;;;;;;;23.08;4.60;;;11.10;79.00;;;;;;1033915;28;20041;-71
2021/01/25 02:39:21;;;;;;;21.20;4.75;;;11.20;79.10;;;;;;1035300;28;20060;-71
2021/01/25 02:39:54;;;;;;;22.65;4.75;;;11.20;79.20;;;;;;1037223;28;20038;-71
2021/01/25 02:40:27;;;;;;;16.38;4.38;;;11.20;79.20;;;;;;1035350;28;20026;-71
2021/01/25 02:41:00;;;;;;;23.05;5.15;;;11.20;79.00;;;;;;1030547;28;20113;-70
2021/01/25 02:41:32;;;;;;;24.92;5.50;;;11.20;78.60;;;;;;1034712;28;20116;-71
2021/01/25 02:42:04;;;;;;;23.27;5.22;;;11.20;78.30;;;;;;1036630;28;20018;-71
2021/01/25 02:42:37;;;;;;;24.80;5.18;;;11.20;78.70;;;;;;1035634;28;20128;-71
2021/01/25 02:43:11;;;;;;;20.15;4.97;;;11.20;78.60;;;;;;1039429;28;20029;-71
2021/01/25 02:43:44;;;;;;;24.25;5.28;;;11.20;78.70;;;;;;1040083;28;20048;-71
2021/01/25 02:44:17;;;;;;;26.33;5.32;;;11.20;78.70;;;;;;1034112;28;20145;-71
2021/01/25 02:44:49;;;;;;;24.88;5.13;;;11.30;78.80;;;;;;1035938;28;20022;-71
2021/01/25 02:45:22;;;;;;;20.80;4.63;;;11.30;78.70;;;;;;1033318;28;20014;-71
2021/01/25 02:45:55;;;;;;;23.50;5.03;;;11.30;78.70;;;;;;1037082;28;20018;-71
2021/01/25 02:46:28;;;;;;;22.70;5.00;;;11.30;78.70;;;;;;1041901;28;20408;-70
2021/01/25 02:47:00;;;;;;;20.13;4.93;;;11.30;78.60;;;;;;1039223;28;20752;-70
2021/01/25 02:47:32;;;;;;;19.15;4.40;;;11.30;78.70;;;;;;1040135;28;20021;-71
2021/01/25 02:48:05;;;;;;;19.45;4.78;;;11.30;78.70;;;;;;1038724;28;20025;-71
2021/01/25 02:48:37;;;;;;;25.00;4.95;;;11.40;78.90;;;;;;1036465;28;20352;-71